Nashville, Tennessee
Traffic Map
Current Weather Conditions
Nashville, Tennessee
Overcast
Overcast
72°
Feels Like: 72°
Wind Chill: 72° Ceiling: 15000
Heat Index: 72° Visibility: 10mi
Dew Point: 69° Wind: 5mph
Humidity: 91% Direction: 150° (SSE)
Pressure: 29.93in Gusts: 0mph
Raw Report DataKBNA 240653Z 15004KT 10SM FEW065 OVC150 22/21 A2993 RMK AO2 SLP126 T02220206
Traffic Incident Summary
Active as of:
Severity:
Category:
InformationThere was an issue retrieving the traffic information for this location. Please try a different location or try again shortly.
Advertisements
Track Severe Weather on mobile